A- A+
   

最近的 特别机场 旧机场 GMFF Saiss FezZHHH WuhanCYHU Montreal St HubertLFBT Tarbes-Lourdes-PyrénéesGCLP Las Palmas Gran CanariaLFRU Morlaix-Ploujean

飞行员的航空天气,使用METAR(气象机场报告)进行的飞行准备和TAF(终端机场预报:针对以下情况的短期天气预报)航空)。 以及其他资源,例如VAC(目视进近图)和NOTAM(通知飞行员)以进行预试飞行.

METAR, TAF, VAC, NOTAM Ninbo机场 (中国) / OACI ZSNB/ IATA NGB

Ninbo 它位于附近 Ningbo, Daijia 在 1 km, Gulin 在 3 km, Shiqi 在 4 km, Jishigang 在 6 km, Duantang 在 7 km, Zhonggongmiao 在 7 km, Hengjie 在 7 km, Dongqiao 在 8 km, Jiangshan 在 9 km, Gaoqiao 在 9 km,

METAR Ninbo机场的 - ZSNB

ZSNB 071300Z VRB01MPS 9999 BKN016 OVC050 09/07 Q1028 NOSIG

Ninbo机场METAR解码 (中国)

ZSNB机场发行的METAR日期2021年03月07日至13:00 GMT, 警告:此METAR已过期, 已于 1 天 8 小时 59 分钟.

可见度为 大于 10 km = 大于6 sm.

温度为9 °C = 48 °F 露点为7 °C = 45 °F 。 这相当于87%的相对湿度。.

QNH是1028 mb = 30.36 inHg

的风 4 km/h = 2 kt, 风向为 °.

云: 距云 1600 ft = 490 m. 多云 5000 ft = 1520 m.

预计未来2小时内不会有重大变化

TAF Ninbo机场的 - ZSNB

ZSNB 070906Z 0712/0812 35004MPS 5000 BR BKN020 TX14/0806Z TN08/0721Z

Ninbo机场TAF解码 (中国)

ZSNB机场发行的TAF日期2021年03月07日至09:06 GMT 警告:此TAF已过期, 已于 1 天 12 小时 53 分钟. 这是 24 小 时的天气预报,每 6 小时更新一次.

du 2021年03月07日 à 12:00 heure TU au 2021年03月08日 à 12:00 heure UTC

的风 8 kt = 14 km/h, 风向为 350°

可见度为 5 km = 3 sm.

薄雾

距云 2000 ft = 610 m.

Ninbo机场的NOTAM

提供的NOTAM不能保证其时事性。 在将其用于飞行准备或在飞行期间使用之前,飞行员是唯一负责验证其有效性的人员。

没有通知

周围的机场 Ninbo

数据源